Time;durP1;ratioP1;P1;durP2;ratioP2;P2;SDS_P1;SDS_P2;PMS_P1;PMS_P2;Temp;Humidity;BMP_temperature;BMP_pressure;BME280_temperature;BME280_humidity;BME280_pressure;Samples;Min_cycle;Max_cycle;Signal;HPM_P1;HPM_P2
2022/02/11 00:02:22;;;;;;;3.63;2.33;;;;;;;;;;5032440;28;20211;-74
2022/02/11 00:07:34;;;;;;;4.57;2.22;;;;;;;;;;5039081;28;20202;-74
2022/02/11 00:10:02;;;;;;;3.55;2.33;;;;;;;;;;5050055;28;20201;-74
2022/02/11 00:12:30;;;;;;;1.85;1.75;;;;;;;;;;5043490;28;20206;-74
2022/02/11 00:15:13;;;;;;;2.45;2.20;;;;;;;;;;5046323;28;20191;-75
2022/02/11 00:17:41;;;;;;;2.75;2.30;;;;;;;;;;5048834;28;20206;-75
2022/02/11 00:20:08;;;;;;;3.65;1.83;;;;;;;;;;5057858;28;20654;-75
2022/02/11 00:22:35;;;;;;;5.10;2.47;;;;;;;;;;5046668;28;20199;-75
2022/02/11 00:25:02;;;;;;;4.07;2.50;;;;;;;;;;5050047;28;20219;-75
2022/02/11 00:28:03;;;;;;;3.30;2.17;;;;;;;;;;5051895;28;20203;-75
2022/02/11 00:33:23;;;;;;;4.35;2.83;;;;;;;;;;5033152;28;20319;-75
2022/02/11 00:35:55;;;;;;;3.05;2.40;;;;;;;;;;5049103;28;20195;-75
2022/02/11 00:38:29;;;;;;;4.28;2.70;;;;;;;;;;5044533;28;20205;-75
2022/02/11 01:03:03;;;;;;;3.97;2.80;;;;;;;;;;5042042;28;20210;-76
2022/02/11 01:05:30;;;;;;;3.92;2.50;;;;;;;;;;5050903;28;20750;-76
2022/02/11 01:07:57;;;;;;;3.17;2.88;;;;;;;;;;5045051;28;20198;-76
2022/02/11 01:10:24;;;;;;;4.75;2.97;;;;;;;;;;5044954;28;20206;-76
2022/02/11 01:12:52;;;;;;;4.88;3.30;;;;;;;;;;5046813;28;20195;-76
2022/02/11 01:15:20;;;;;;;4.53;4.05;;;;;;;;;;5043358;28;20203;-75
2022/02/11 01:17:51;;;;;;;3.65;3.35;;;;;;;;;;5047760;28;20332;-75
2022/02/11 01:20:26;;;;;;;7.20;3.90;;;;;;;;;;5041481;28;20199;-75
2022/02/11 01:23:11;;;;;;;7.10;4.07;;;;;;;;;;5039165;28;20229;-75
2022/02/11 01:25:56;;;;;;;4.72;4.18;;;;;;;;;;5044281;28;20219;-74
2022/02/11 01:28:36;;;;;;;7.45;4.40;;;;;;;;;;5042211;28;20206;-75
2022/02/11 01:31:15;;;;;;;5.43;4.03;;;;;;;;;;5037262;28;20203;-75
2022/02/11 01:33:56;;;;;;;6.95;4.15;;;;;;;;;;5037119;28;20202;-75
2022/02/11 01:36:47;;;;;;;5.15;3.97;;;;;;;;;;5037994;28;20194;-75
2022/02/11 01:45:07;;;;;;;8.05;6.38;;;;;;;;;;5045289;28;20226;-75
2022/02/11 01:50:49;;;;;;;5.80;4.63;;;;;;;;;;5011965;28;20205;-75
2022/02/11 01:53:25;;;;;;;7.07;6.10;;;;;;;;;;5042442;28;20593;-75
2022/02/11 01:56:16;;;;;;;6.28;5.65;;;;;;;;;;5048007;28;20197;-75
2022/02/11 02:13:16;;;;;;;7.28;5.10;;;;;;;;;;4985445;28;20257;-74
2022/02/11 02:21:58;;;;;;;6.30;5.70;;;;;;;;;;5019691;28;20676;-74
2022/02/11 02:24:43;;;;;;;7.50;6.30;;;;;;;;;;5050197;28;20358;-74
2022/02/11 02:27:30;;;;;;;9.63;6.88;;;;;;;;;;5046804;28;20219;-74
2022/02/11 02:36:03;;;;;;;8.65;6.60;;;;;;;;;;5047474;28;20477;-74
2022/02/11 02:57:46;;;;;;;6.15;5.55;;;;;;;;;;5045263;28;20294;-75
2022/02/11 03:00:41;;;;;;;7.45;6.35;;;;;;;;;;5045550;28;20218;-76
2022/02/11 03:50:40;;;;;;;6.72;5.82;;;;;;;;;;5043722;28;20226;-74
2022/02/11 03:56:25;;;;;;;9.07;6.13;;;;;;;;;;5039613;28;20198;-74
2022/02/11 03:59:34;;;;;;;8.85;5.85;;;;;;;;;;5050754;28;20282;-74
2022/02/11 04:28:04;;;;;;;6.43;5.82;;;;;;;;;;5044333;28;20779;-74
2022/02/11 04:55:03;;;;;;;6.72;5.85;;;;;;;;;;5046021;28;20629;-73
2022/02/11 05:00:16;;;;;;;8.55;5.88;;;;;;;;;;5044018;28;20200;-73
2022/02/11 05:02:45;;;;;;;11.18;6.38;;;;;;;;;;5049195;28;20222;-73
2022/02/11 05:05:12;;;;;;;8.75;6.40;;;;;;;;;;5041016;28;20199;-73
2022/02/11 05:07:39;;;;;;;7.32;6.07;;;;;;;;;;5042984;28;20479;-73
2022/02/11 05:10:07;;;;;;;7.28;5.90;;;;;;;;;;5031512;28;20199;-73
2022/02/11 05:12:36;;;;;;;8.70;7.53;;;;;;;;;;5040226;28;20619;-73
2022/02/11 05:15:08;;;;;;;6.75;6.10;;;;;;;;;;5051749;28;20199;-73
2022/02/11 05:17:35;;;;;;;10.30;6.25;;;;;;;;;;5044801;28;20206;-73
2022/02/11 05:20:02;;;;;;;8.77;6.65;;;;;;;;;;5046573;28;20198;-73
2022/02/11 05:22:29;;;;;;;10.77;6.97;;;;;;;;;;5041898;28;20198;-74
2022/02/11 05:24:56;;;;;;;9.50;6.18;;;;;;;;;;5047508;28;20574;-73
2022/02/11 05:27:23;;;;;;;7.85;6.45;;;;;;;;;;5045456;28;20214;-75
2022/02/11 05:29:52;;;;;;;14.95;6.57;;;;;;;;;;5055909;28;20561;-74
2022/02/11 05:32:19;;;;;;;10.52;7.00;;;;;;;;;;5047509;28;20199;-74
2022/02/11 05:34:46;;;;;;;11.45;8.60;;;;;;;;;;5046817;28;20213;-73
2022/02/11 05:37:13;;;;;;;7.50;5.45;;;;;;;;;;5046890;28;20205;-73
2022/02/11 05:39:40;;;;;;;11.07;6.53;;;;;;;;;;5048356;28;20577;-73
2022/02/11 05:42:07;;;;;;;11.65;6.63;;;;;;;;;;5045005;28;20201;-73
2022/02/11 05:44:34;;;;;;;6.97;6.22;;;;;;;;;;5052003;28;20199;-72
2022/02/11 05:47:02;;;;;;;9.93;6.28;;;;;;;;;;5045633;28;20697;-73
2022/02/11 05:49:29;;;;;;;9.10;6.32;;;;;;;;;;5056274;28;20199;-72
2022/02/11 05:51:56;;;;;;;7.75;5.97;;;;;;;;;;5044788;28;20197;-72
2022/02/11 05:54:23;;;;;;;8.75;6.90;;;;;;;;;;5042937;28;20562;-73
2022/02/11 05:56:51;;;;;;;10.10;6.35;;;;;;;;;;5050973;28;20198;-73
2022/02/11 05:59:18;;;;;;;8.98;6.10;;;;;;;;;;5042543;28;20659;-73
2022/02/11 06:01:45;;;;;;;8.90;6.07;;;;;;;;;;5041144;28;20686;-73
2022/02/11 06:04:13;;;;;;;8.23;5.65;;;;;;;;;;5059574;28;20692;-73
2022/02/11 06:06:40;;;;;;;12.18;6.13;;;;;;;;;;5050740;28;20713;-73
2022/02/11 06:09:07;;;;;;;5.75;5.10;;;;;;;;;;5043846;28;20203;-72
2022/02/11 06:11:34;;;;;;;9.23;5.95;;;;;;;;;;5049282;28;20194;-72
2022/02/11 06:14:01;;;;;;;7.18;5.22;;;;;;;;;;5048766;28;20211;-72
2022/02/11 06:16:28;;;;;;;4.75;4.07;;;;;;;;;;5042690;28;20195;-72
2022/02/11 06:18:55;;;;;;;6.80;4.70;;;;;;;;;;5057087;28;20376;-73
2022/02/11 06:21:24;;;;;;;9.07;4.68;;;;;;;;;;5058443;28;20567;-73
2022/02/11 06:23:55;;;;;;;6.55;4.57;;;;;;;;;;5047525;28;20639;-73
2022/02/11 06:26:22;;;;;;;6.40;4.97;;;;;;;;;;5045232;28;20246;-73
2022/02/11 06:28:50;;;;;;;5.05;4.57;;;;;;;;;;5048549;28;20212;-74
2022/02/11 06:31:17;;;;;;;5.32;4.28;;;;;;;;;;5039585;28;20259;-74
2022/02/11 06:33:44;;;;;;;7.72;4.90;;;;;;;;;;5049228;28;20678;-74
2022/02/11 06:36:11;;;;;;;7.43;4.70;;;;;;;;;;5047466;28;20782;-73
2022/02/11 06:38:39;;;;;;;6.75;5.20;;;;;;;;;;5052762;28;20206;-73
2022/02/11 06:41:06;;;;;;;10.52;5.00;;;;;;;;;;5045928;28;20576;-74
2022/02/11 06:43:33;;;;;;;4.95;3.55;;;;;;;;;;5044540;28;20651;-74
2022/02/11 06:46:01;;;;;;;9.05;4.05;;;;;;;;;;5053258;28;20570;-74
2022/02/11 06:48:28;;;;;;;5.28;4.40;;;;;;;;;;5062356;28;20194;-74
2022/02/11 06:50:55;;;;;;;4.30;3.50;;;;;;;;;;5065443;28;20194;-74
2022/02/11 06:53:22;;;;;;;5.78;4.32;;;;;;;;;;5063039;28;20687;-74
2022/02/11 06:55:51;;;;;;;12.38;4.38;;;;;;;;;;5048608;28;20700;-74
2022/02/11 06:58:20;;;;;;;7.38;4.03;;;;;;;;;;5053151;28;20654;-73
2022/02/11 07:00:48;;;;;;;8.70;4.18;;;;;;;;;;5044375;28;20204;-72
2022/02/11 07:03:16;;;;;;;7.18;3.40;;;;;;;;;;5054176;28;20204;-73
2022/02/11 07:05:44;;;;;;;8.85;4.28;;;;;;;;;;5048058;28;20655;-73
2022/02/11 07:08:11;;;;;;;4.15;2.40;;;;;;;;;;5039055;28;20697;-72
2022/02/11 07:10:38;;;;;;;6.78;4.65;;;;;;;;;;5047967;28;20202;-74
2022/02/11 07:13:13;;;;;;;7.40;3.03;;;;;;;;;;5047385;28;20195;-74
2022/02/11 07:15:40;;;;;;;4.78;3.17;;;;;;;;;;5050155;28;20210;-74
2022/02/11 07:18:07;;;;;;;4.18;2.78;;;;;;;;;;5042209;28;20199;-74
2022/02/11 07:20:34;;;;;;;8.32;4.07;;;;;;;;;;5051526;28;20677;-74
2022/02/11 07:23:01;;;;;;;3.72;2.97;;;;;;;;;;5047561;28;20207;-74
2022/02/11 07:25:28;;;;;;;3.53;2.63;;;;;;;;;;5040130;28;20195;-74
2022/02/11 07:27:55;;;;;;;5.13;2.25;;;;;;;;;;5043906;28;20222;-74
2022/02/11 07:30:23;;;;;;;5.60;2.80;;;;;;;;;;5046705;28;20647;-74
2022/02/11 07:32:51;;;;;;;4.93;2.80;;;;;;;;;;5048967;28;20672;-74
2022/02/11 07:35:19;;;;;;;6.20;3.10;;;;;;;;;;5055605;28;20583;-74
2022/02/11 07:37:46;;;;;;;6.13;3.10;;;;;;;;;;5042889;28;20269;-75
2022/02/11 07:40:14;;;;;;;3.95;2.03;;;;;;;;;;5042536;28;20435;-74
2022/02/11 07:42:41;;;;;;;7.63;2.50;;;;;;;;;;5047028;28;20204;-75
2022/02/11 07:45:09;;;;;;;5.60;2.50;;;;;;;;;;5040230;28;20230;-75
2022/02/11 07:47:37;;;;;;;13.57;2.97;;;;;;;;;;5044013;28;20246;-73
2022/02/11 07:50:05;;;;;;;6.18;1.90;;;;;;;;;;5029182;28;20642;-74
2022/02/11 07:52:32;;;;;;;9.02;2.75;;;;;;;;;;5038056;28;20218;-73
2022/02/11 07:54:59;;;;;;;4.10;2.08;;;;;;;;;;5045673;28;20191;-74
2022/02/11 07:57:26;;;;;;;4.38;2.40;;;;;;;;;;5036115;28;20581;-73
2022/02/11 07:59:53;;;;;;;5.40;2.88;;;;;;;;;;5043397;28;20649;-73
2022/02/11 08:02:21;;;;;;;5.05;1.85;;;;;;;;;;5038889;28;20199;-73
2022/02/11 08:04:49;;;;;;;8.63;2.33;;;;;;;;;;5037654;28;20226;-73
2022/02/11 08:07:16;;;;;;;8.32;2.30;;;;;;;;;;5045480;28;20218;-73
2022/02/11 08:09:43;;;;;;;3.60;2.00;;;;;;;;;;5047512;28;20210;-73
2022/02/11 08:12:11;;;;;;;8.85;2.28;;;;;;;;;;5049009;28;20211;-74
2022/02/11 08:14:38;;;;;;;5.80;2.05;;;;;;;;;;5041013;28;20204;-74
2022/02/11 08:17:05;;;;;;;9.43;2.40;;;;;;;;;;5044513;28;20198;-73
2022/02/11 08:19:32;;;;;;;5.57;1.75;;;;;;;;;;5044275;28;20213;-74
2022/02/11 08:22:01;;;;;;;3.85;2.08;;;;;;;;;;5044095;28;20602;-74
2022/02/11 08:24:28;;;;;;;3.35;1.85;;;;;;;;;;5042150;28;20207;-72
2022/02/11 08:26:55;;;;;;;3.92;1.85;;;;;;;;;;5047872;28;20218;-73
2022/02/11 08:29:25;;;;;;;6.25;1.90;;;;;;;;;;5048015;28;20202;-73
2022/02/11 08:31:54;;;;;;;10.07;2.53;;;;;;;;;;5044454;28;20285;-72
2022/02/11 08:34:22;;;;;;;5.45;1.80;;;;;;;;;;5057839;28;20201;-73
2022/02/11 08:36:49;;;;;;;7.32;2.38;;;;;;;;;;5047843;28;20265;-73
2022/02/11 08:39:17;;;;;;;6.68;1.95;;;;;;;;;;5058334;28;20669;-73
2022/02/11 08:41:44;;;;;;;3.25;1.75;;;;;;;;;;5046637;28;20949;-73
2022/02/11 08:44:11;;;;;;;9.38;1.50;;;;;;;;;;5032629;28;20203;-72
2022/02/11 08:46:38;;;;;;;4.70;1.55;;;;;;;;;;5040075;28;20311;-73
2022/02/11 08:49:05;;;;;;;4.60;1.75;;;;;;;;;;5046438;28;20698;-73
2022/02/11 08:51:32;;;;;;;4.85;1.20;;;;;;;;;;5045657;28;20199;-73
2022/02/11 08:53:59;;;;;;;4.00;1.58;;;;;;;;;;5051778;28;20202;-72
2022/02/11 08:56:29;;;;;;;7.93;2.47;;;;;;;;;;5046635;28;20646;-73
2022/02/11 08:58:56;;;;;;;8.85;1.95;;;;;;;;;;5042732;28;20237;-73
2022/02/11 09:01:23;;;;;;;6.28;1.75;;;;;;;;;;5046543;28;20280;-73
2022/02/11 09:03:50;;;;;;;10.15;2.10;;;;;;;;;;5044821;28;20206;-73
2022/02/11 09:06:18;;;;;;;8.25;2.22;;;;;;;;;;5045801;28;20666;-73
2022/02/11 09:08:45;;;;;;;5.90;2.53;;;;;;;;;;5049443;28;20229;-72
2022/02/11 09:11:16;;;;;;;3.92;1.90;;;;;;;;;;5046326;28;20577;-72
2022/02/11 09:13:44;;;;;;;5.68;1.70;;;;;;;;;;5050070;28;20194;-73
2022/02/11 09:16:11;;;;;;;13.43;3.67;;;;;;;;;;5042230;28;20202;-73
2022/02/11 09:18:39;;;;;;;9.30;2.90;;;;;;;;;;5050639;28;20218;-73
2022/02/11 09:21:07;;;;;;;5.32;1.90;;;;;;;;;;5045471;28;20191;-72
2022/02/11 09:23:34;;;;;;;3.67;1.83;;;;;;;;;;5050393;28;20191;-72
2022/02/11 09:26:02;;;;;;;4.60;2.40;;;;;;;;;;5043769;28;20199;-73
2022/02/11 09:28:29;;;;;;;7.38;1.80;;;;;;;;;;5044936;28;20242;-73
2022/02/11 09:30:57;;;;;;;5.45;1.77;;;;;;;;;;5043760;28;20198;-73
2022/02/11 09:33:24;;;;;;;5.40;2.03;;;;;;;;;;5050760;28;20670;-72
2022/02/11 09:35:51;;;;;;;5.60;2.03;;;;;;;;;;5049954;28;20647;-73
2022/02/11 09:38:19;;;;;;;9.05;2.42;;;;;;;;;;5049176;28;20191;-72
2022/02/11 09:40:50;;;;;;;6.00;2.35;;;;;;;;;;5038922;28;20622;-72
2022/02/11 09:43:18;;;;;;;6.07;2.35;;;;;;;;;;5049757;28;20194;-72
2022/02/11 09:45:45;;;;;;;7.57;2.72;;;;;;;;;;5042485;28;20274;-72
2022/02/11 09:48:14;;;;;;;5.30;2.28;;;;;;;;;;5043066;28;20210;-73
2022/02/11 09:50:41;;;;;;;9.27;3.20;;;;;;;;;;5052504;28;20206;-73
2022/02/11 09:53:08;;;;;;;3.95;2.03;;;;;;;;;;5047333;28;20289;-73
2022/02/11 09:55:40;;;;;;;5.93;2.25;;;;;;;;;;5042293;28;20645;-73
2022/02/11 09:58:08;;;;;;;6.07;1.75;;;;;;;;;;5050749;28;20236;-73
2022/02/11 10:00:36;;;;;;;4.13;1.77;;;;;;;;;;5046237;28;20654;-74
2022/02/11 10:03:04;;;;;;;5.88;2.38;;;;;;;;;;5044178;28;20429;-73
2022/02/11 10:05:33;;;;;;;7.68;2.80;;;;;;;;;;5049947;28;20693;-73
2022/02/11 10:08:01;;;;;;;8.15;2.60;;;;;;;;;;5030626;28;20314;-73
2022/02/11 10:10:44;;;;;;;9.90;2.65;;;;;;;;;;5040312;28;20195;-73
2022/02/11 10:13:14;;;;;;;6.35;1.80;;;;;;;;;;5040600;28;20195;-73
2022/02/11 10:15:43;;;;;;;9.80;2.60;;;;;;;;;;5036868;28;20206;-73
2022/02/11 10:18:11;;;;;;;8.88;2.85;;;;;;;;;;5045885;28;20317;-73
2022/02/11 10:20:41;;;;;;;10.25;2.30;;;;;;;;;;5044208;28;20206;-73
2022/02/11 10:23:19;;;;;;;8.35;2.92;;;;;;;;;;5043608;28;20205;-73
2022/02/11 10:25:53;;;;;;;6.20;1.80;;;;;;;;;;5047527;28;20712;-74
2022/02/11 10:28:25;;;;;;;4.65;2.10;;;;;;;;;;5045028;28;20755;-74
2022/02/11 10:31:09;;;;;;;8.00;1.65;;;;;;;;;;5042290;28;20283;-76
2022/02/11 10:33:53;;;;;;;7.07;2.10;;;;;;;;;;5050102;28;20194;-76
2022/02/11 10:36:23;;;;;;;9.32;2.92;;;;;;;;;;5035578;28;20199;-74
2022/02/11 10:39:01;;;;;;;10.88;3.10;;;;;;;;;;5041216;28;20210;-73
2022/02/11 10:41:28;;;;;;;9.10;2.78;;;;;;;;;;5035937;28;20200;-73
2022/02/11 10:43:58;;;;;;;11.27;3.13;;;;;;;;;;5031048;28;20206;-73
2022/02/11 10:46:25;;;;;;;11.48;3.05;;;;;;;;;;5035765;28;20215;-74
2022/02/11 10:48:53;;;;;;;8.77;2.50;;;;;;;;;;5045764;28;20701;-74
2022/02/11 10:51:23;;;;;;;11.32;2.80;;;;;;;;;;5044616;28;20742;-74
2022/02/11 10:53:50;;;;;;;9.20;2.35;;;;;;;;;;5045021;28;20277;-74
2022/02/11 10:56:17;;;;;;;15.02;4.93;;;;;;;;;;5046340;28;20191;-74
2022/02/11 10:58:54;;;;;;;9.13;4.32;;;;;;;;;;5046835;28;20206;-73
2022/02/11 11:01:21;;;;;;;12.48;2.53;;;;;;;;;;5035480;28;20211;-74
2022/02/11 11:03:48;;;;;;;11.93;3.47;;;;;;;;;;5047265;28;20198;-74
2022/02/11 11:06:15;;;;;;;6.10;1.75;;;;;;;;;;5046229;28;20195;-74
2022/02/11 11:08:44;;;;;;;10.52;3.88;;;;;;;;;;5042917;28;20215;-74
2022/02/11 11:11:11;;;;;;;21.90;2.78;;;;;;;;;;5052848;28;20725;-74
2022/02/11 11:13:39;;;;;;;7.13;2.00;;;;;;;;;;5050521;28;20657;-74
2022/02/11 11:16:08;;;;;;;6.47;1.92;;;;;;;;;;5041542;28;20204;-74
2022/02/11 11:18:37;;;;;;;2.78;1.83;;;;;;;;;;5041882;28;20278;-74
2022/02/11 11:21:05;;;;;;;10.18;2.83;;;;;;;;;;5047668;28;20199;-74
2022/02/11 11:23:35;;;;;;;4.78;1.80;;;;;;;;;;5049190;28;20689;-73
2022/02/11 11:26:09;;;;;;;10.98;2.47;;;;;;;;;;5041959;28;20613;-74
2022/02/11 11:28:39;;;;;;;8.20;3.40;;;;;;;;;;5050327;28;20233;-74
2022/02/11 11:31:10;;;;;;;6.38;2.75;;;;;;;;;;5044933;28;20195;-74
2022/02/11 11:33:37;;;;;;;7.45;2.60;;;;;;;;;;5045171;28;20280;-73
2022/02/11 11:36:06;;;;;;;9.13;1.92;;;;;;;;;;5046526;28;20206;-74
2022/02/11 11:38:38;;;;;;;9.40;2.13;;;;;;;;;;5039757;28;20673;-74
2022/02/11 11:41:08;;;;;;;6.47;2.15;;;;;;;;;;5049081;28;20612;-74
2022/02/11 11:43:36;;;;;;;12.35;2.20;;;;;;;;;;5048615;28;20214;-74
2022/02/11 11:46:04;;;;;;;5.38;1.83;;;;;;;;;;5044083;28;20716;-74
2022/02/11 11:48:41;;;;;;;8.35;2.13;;;;;;;;;;5049808;28;20215;-74
2022/02/11 11:51:08;;;;;;;5.03;1.80;;;;;;;;;;5045448;28;20199;-74
2022/02/11 11:53:35;;;;;;;6.15;2.35;;;;;;;;;;5047410;28;20697;-74
2022/02/11 11:56:02;;;;;;;5.63;2.22;;;;;;;;;;5049556;28;20206;-74
2022/02/11 11:58:33;;;;;;;12.95;1.92;;;;;;;;;;5049758;28;20214;-73
2022/02/11 12:01:02;;;;;;;12.15;3.53;;;;;;;;;;5036418;28;20297;-74
2022/02/11 12:03:29;;;;;;;10.32;2.20;;;;;;;;;;5042636;28;20191;-74
2022/02/11 12:06:00;;;;;;;5.75;1.70;;;;;;;;;;5044308;28;20681;-74
2022/02/11 12:08:29;;;;;;;6.45;2.15;;;;;;;;;;5045925;28;20221;-74
2022/02/11 12:10:57;;;;;;;2.75;1.50;;;;;;;;;;5046098;28;20201;-74
2022/02/11 12:13:25;;;;;;;7.30;2.13;;;;;;;;;;5047884;28;20199;-74
2022/02/11 12:15:53;;;;;;;9.20;1.95;;;;;;;;;;5046288;28;20206;-74
2022/02/11 12:18:21;;;;;;;4.07;1.83;;;;;;;;;;5033791;28;20195;-73
2022/02/11 12:20:48;;;;;;;7.28;2.45;;;;;;;;;;5028942;28;20203;-73
2022/02/11 12:28:44;;;;;;;11.52;2.25;;;;;;;;;;5047996;28;20260;-74
2022/02/11 12:31:23;;;;;;;8.20;2.20;;;;;;;;;;5041465;28;20206;-74
2022/02/11 12:33:50;;;;;;;6.53;1.85;;;;;;;;;;5044799;28;20521;-74
2022/02/11 12:36:17;;;;;;;6.78;1.73;;;;;;;;;;5037349;28;20205;-74
2022/02/11 12:38:44;;;;;;;7.18;1.88;;;;;;;;;;5038803;28;20198;-73
2022/02/11 12:41:11;;;;;;;9.52;1.95;;;;;;;;;;5048946;28;20207;-74
2022/02/11 12:43:38;;;;;;;4.88;1.77;;;;;;;;;;5048868;28;20198;-73
2022/02/11 12:46:08;;;;;;;5.53;2.22;;;;;;;;;;5045906;28;20585;-74
2022/02/11 12:48:40;;;;;;;6.60;2.20;;;;;;;;;;5050835;28;20624;-74
2022/02/11 12:51:10;;;;;;;5.50;1.77;;;;;;;;;;5046752;28;20191;-74
2022/02/11 12:53:38;;;;;;;10.18;2.10;;;;;;;;;;5045091;28;20203;-74
2022/02/11 12:56:12;;;;;;;4.82;1.55;;;;;;;;;;5048315;28;20558;-74
2022/02/11 12:58:39;;;;;;;6.57;2.00;;;;;;;;;;5043872;28;20210;-74
2022/02/11 13:01:08;;;;;;;10.57;1.90;;;;;;;;;;5047796;28;20681;-74
2022/02/11 13:03:36;;;;;;;3.50;1.70;;;;;;;;;;5042543;28;20207;-74
2022/02/11 13:06:04;;;;;;;7.35;1.70;;;;;;;;;;5037656;28;20301;-74
2022/02/11 13:08:31;;;;;;;6.70;1.90;;;;;;;;;;5039920;28;20221;-74
2022/02/11 13:10:58;;;;;;;4.30;1.60;;;;;;;;;;5043122;28;20187;-74
2022/02/11 13:13:26;;;;;;;3.40;1.45;;;;;;;;;;5042132;28;20211;-74
2022/02/11 13:15:55;;;;;;;6.25;1.40;;;;;;;;;;5044853;28;20198;-74
2022/02/11 13:18:23;;;;;;;8.30;1.67;;;;;;;;;;5040142;28;20187;-74
2022/02/11 13:20:52;;;;;;;7.85;1.90;;;;;;;;;;5030932;28;20659;-73
2022/02/11 13:23:20;;;;;;;5.90;2.00;;;;;;;;;;5030717;28;20678;-74
2022/02/11 13:25:48;;;;;;;7.22;2.00;;;;;;;;;;5032204;28;20191;-73
2022/02/11 13:28:15;;;;;;;6.60;2.20;;;;;;;;;;5037385;28;20238;-73
2022/02/11 13:30:45;;;;;;;5.78;2.05;;;;;;;;;;5039321;28;20206;-74
2022/02/11 13:33:20;;;;;;;4.60;1.65;;;;;;;;;;5050646;28;20224;-74
2022/02/11 13:35:47;;;;;;;10.32;1.98;;;;;;;;;;5050768;28;20191;-74
2022/02/11 13:38:21;;;;;;;2.78;1.25;;;;;;;;;;5045065;28;20205;-73
2022/02/11 13:40:52;;;;;;;6.00;2.42;;;;;;;;;;5039222;28;20356;-74
2022/02/11 13:43:19;;;;;;;11.63;2.28;;;;;;;;;;5033240;28;20670;-73
2022/02/11 13:45:50;;;;;;;2.45;1.52;;;;;;;;;;5041539;28;20666;-72
2022/02/11 13:48:18;;;;;;;8.38;2.13;;;;;;;;;;5044759;28;20251;-74
2022/02/11 13:51:02;;;;;;;7.53;2.15;;;;;;;;;;5030166;28;20199;-74
2022/02/11 13:53:35;;;;;;;12.57;1.85;;;;;;;;;;5049215;28;20195;-74
2022/02/11 13:56:02;;;;;;;7.97;2.88;;;;;;;;;;5037097;28;20248;-74
2022/02/11 13:58:30;;;;;;;5.45;2.05;;;;;;;;;;5043893;28;20206;-74
2022/02/11 14:00:57;;;;;;;3.53;2.00;;;;;;;;;;5036626;28;20199;-73
2022/02/11 14:03:25;;;;;;;10.57;2.55;;;;;;;;;;5044769;28;20650;-74
2022/02/11 14:05:54;;;;;;;5.03;2.17;;;;;;;;;;5046713;28;20195;-74
2022/02/11 14:08:23;;;;;;;4.53;1.40;;;;;;;;;;5042743;28;20357;-73
2022/02/11 14:11:08;;;;;;;6.97;2.75;;;;;;;;;;5049431;28;20911;-74
2022/02/11 14:13:35;;;;;;;5.55;1.85;;;;;;;;;;5049109;28;20199;-73
2022/02/11 14:16:02;;;;;;;5.22;1.50;;;;;;;;;;5040929;28;20570;-73
2022/02/11 14:18:29;;;;;;;5.82;1.65;;;;;;;;;;5047784;28;20589;-74
2022/02/11 14:20:57;;;;;;;3.90;2.35;;;;;;;;;;5046600;28;20680;-73
2022/02/11 14:23:24;;;;;;;3.53;1.85;;;;;;;;;;5045630;28;20195;-73
2022/02/11 14:25:55;;;;;;;4.97;1.85;;;;;;;;;;5040217;28;20206;-73
2022/02/11 14:28:24;;;;;;;7.13;2.08;;;;;;;;;;5041864;28;20203;-73
2022/02/11 14:30:52;;;;;;;8.30;2.60;;;;;;;;;;5044952;28;20199;-73
2022/02/11 14:33:19;;;;;;;3.80;1.67;;;;;;;;;;5034380;28;20196;-73
2022/02/11 14:35:46;;;;;;;5.90;2.67;;;;;;;;;;5046178;28;20199;-73
2022/02/11 14:38:13;;;;;;;2.38;1.38;;;;;;;;;;5051031;28;20195;-74
2022/02/11 14:41:46;;;;;;;4.80;2.15;;;;;;;;;;5050211;28;20221;-73
2022/02/11 14:43:30;;;;;;;4.35;1.67;;;;;;;;;;5046167;28;20757;-73
2022/02/11 14:45:57;;;;;;;4.05;1.88;;;;;;;;;;5036667;28;20227;-73
2022/02/11 14:48:24;;;;;;;5.97;1.95;;;;;;;;;;5042879;28;20199;-74
2022/02/11 14:50:51;;;;;;;4.43;1.73;;;;;;;;;;5034043;28;20662;-73
2022/02/11 14:53:18;;;;;;;1.48;1.30;;;;;;;;;;5041368;28;20203;-73
2022/02/11 14:55:45;;;;;;;12.70;4.40;;;;;;;;;;5051433;28;20647;-73
2022/02/11 14:58:12;;;;;;;8.80;1.65;;;;;;;;;;5045698;28;20216;-72
2022/02/11 15:00:41;;;;;;;2.55;1.25;;;;;;;;;;5048409;28;20203;-74
2022/02/11 15:03:09;;;;;;;4.35;1.50;;;;;;;;;;5056548;28;20578;-75
2022/02/11 15:05:36;;;;;;;4.45;1.35;;;;;;;;;;5038785;28;20196;-75
2022/02/11 15:08:03;;;;;;;2.97;1.63;;;;;;;;;;5042894;28;20211;-74
2022/02/11 15:10:30;;;;;;;5.22;1.33;;;;;;;;;;5034723;28;20265;-74
2022/02/11 15:12:57;;;;;;;3.03;1.50;;;;;;;;;;5050506;28;20215;-74
2022/02/11 15:15:25;;;;;;;3.65;1.55;;;;;;;;;;5035478;28;20214;-74
2022/02/11 15:17:53;;;;;;;6.78;1.90;;;;;;;;;;5036281;28;20195;-74
2022/02/11 15:20:20;;;;;;;4.32;1.52;;;;;;;;;;5051799;28;20210;-75
2022/02/11 15:22:47;;;;;;;2.55;1.67;;;;;;;;;;5038094;28;20679;-75
2022/02/11 15:25:15;;;;;;;4.32;1.42;;;;;;;;;;5035000;28;20191;-74
2022/02/11 15:27:43;;;;;;;4.28;1.77;;;;;;;;;;5044932;28;20702;-74
2022/02/11 15:30:14;;;;;;;5.28;1.85;;;;;;;;;;5034675;28;20613;-74
2022/02/11 15:32:41;;;;;;;6.85;1.45;;;;;;;;;;5039830;28;20238;-74
2022/02/11 15:35:09;;;;;;;4.78;2.03;;;;;;;;;;5052869;28;20191;-74
2022/02/11 15:37:37;;;;;;;5.70;1.63;;;;;;;;;;5042874;28;20206;-74
2022/02/11 15:40:05;;;;;;;7.50;1.80;;;;;;;;;;5045041;28;20205;-74
2022/02/11 15:42:32;;;;;;;5.53;1.65;;;;;;;;;;5050823;28;20194;-74
2022/02/11 15:44:59;;;;;;;5.90;1.65;;;;;;;;;;5041271;28;20211;-74
2022/02/11 15:47:28;;;;;;;3.45;1.38;;;;;;;;;;5038184;28;20195;-73
2022/02/11 15:49:55;;;;;;;1.92;1.45;;;;;;;;;;5044275;28;20312;-74
2022/02/11 15:52:24;;;;;;;3.67;1.42;;;;;;;;;;5045313;28;20542;-74
2022/02/11 15:54:51;;;;;;;5.07;2.40;;;;;;;;;;5050402;28;20195;-73
2022/02/11 15:57:19;;;;;;;3.20;1.20;;;;;;;;;;5051490;28;20195;-73
2022/02/11 15:59:46;;;;;;;6.85;2.53;;;;;;;;;;5046342;28;20338;-74
2022/02/11 16:02:13;;;;;;;2.42;1.35;;;;;;;;;;5052479;28;20650;-75
2022/02/11 16:04:40;;;;;;;4.10;1.30;;;;;;;;;;5047871;28;20282;-74
2022/02/11 16:07:07;;;;;;;5.30;1.40;;;;;;;;;;5036718;28;20196;-74
2022/02/11 16:09:36;;;;;;;10.27;1.88;;;;;;;;;;5049447;28;20207;-75
2022/02/11 16:12:05;;;;;;;7.82;2.00;;;;;;;;;;5055036;28;20205;-75
2022/02/11 16:14:32;;;;;;;3.50;1.60;;;;;;;;;;5058797;28;20252;-75
2022/02/11 16:17:00;;;;;;;4.85;1.58;;;;;;;;;;5047882;28;20222;-75
2022/02/11 16:19:27;;;;;;;3.53;1.70;;;;;;;;;;5045537;28;20203;-75
2022/02/11 16:21:54;;;;;;;3.10;1.63;;;;;;;;;;5057144;28;20281;-75
2022/02/11 16:24:21;;;;;;;2.95;1.38;;;;;;;;;;5048149;28;20299;-75
2022/02/11 16:26:50;;;;;;;2.13;1.42;;;;;;;;;;5045424;28;20586;-75
2022/02/11 16:29:17;;;;;;;2.60;1.40;;;;;;;;;;5043184;28;20219;-75
2022/02/11 16:31:45;;;;;;;2.58;1.50;;;;;;;;;;5054211;28;20203;-75
2022/02/11 16:34:12;;;;;;;3.25;1.48;;;;;;;;;;5046676;28;20195;-75
2022/02/11 16:36:42;;;;;;;5.80;1.85;;;;;;;;;;5039415;28;20204;-74
2022/02/11 16:39:10;;;;;;;3.85;1.10;;;;;;;;;;5040467;28;20199;-74
2022/02/11 16:41:37;;;;;;;4.10;1.65;;;;;;;;;;5051120;28;20977;-74
2022/02/11 16:44:06;;;;;;;9.13;1.70;;;;;;;;;;5049284;28;20195;-74
2022/02/11 16:46:34;;;;;;;6.80;1.45;;;;;;;;;;5045661;28;20249;-74
2022/02/11 16:49:03;;;;;;;3.88;1.30;;;;;;;;;;5048523;28;20693;-74
2022/02/11 16:51:31;;;;;;;4.47;1.52;;;;;;;;;;5042745;28;20230;-74
2022/02/11 16:53:58;;;;;;;4.95;1.30;;;;;;;;;;5040919;28;20202;-74
2022/02/11 16:56:25;;;;;;;2.55;1.33;;;;;;;;;;5033546;28;20200;-74
2022/02/11 16:58:52;;;;;;;5.28;1.58;;;;;;;;;;5035130;28;20697;-75
2022/02/11 17:01:21;;;;;;;1.52;0.90;;;;;;;;;;5032376;28;20214;-75
2022/02/11 17:03:48;;;;;;;4.50;1.60;;;;;;;;;;5037383;28;20203;-74
2022/02/11 17:06:15;;;;;;;4.43;2.15;;;;;;;;;;5039311;28;20560;-74
2022/02/11 17:08:43;;;;;;;1.98;1.75;;;;;;;;;;5032490;28;20583;-74
2022/02/11 17:11:11;;;;;;;3.70;1.58;;;;;;;;;;5037398;28;20207;-74
2022/02/11 17:13:39;;;;;;;4.00;1.20;;;;;;;;;;5044639;28;20552;-74
2022/02/11 17:16:06;;;;;;;5.45;2.35;;;;;;;;;;5035214;28;20701;-75
2022/02/11 17:18:35;;;;;;;5.35;1.83;;;;;;;;;;5032697;28;20227;-74
2022/02/11 17:21:02;;;;;;;3.33;1.63;;;;;;;;;;5041919;28;20191;-74
2022/02/11 17:23:29;;;;;;;2.58;1.30;;;;;;;;;;5047953;28;20203;-74
2022/02/11 17:25:56;;;;;;;3.88;1.27;;;;;;;;;;5053558;28;20749;-74
2022/02/11 17:28:24;;;;;;;5.15;2.35;;;;;;;;;;5061111;28;20690;-74
2022/02/11 17:30:51;;;;;;;2.70;1.40;;;;;;;;;;5039689;28;20242;-75
2022/02/11 17:33:18;;;;;;;4.55;1.45;;;;;;;;;;5044684;28;20221;-75
2022/02/11 17:35:46;;;;;;;2.45;1.60;;;;;;;;;;5045877;28;20202;-75
2022/02/11 17:38:14;;;;;;;3.03;1.38;;;;;;;;;;5049351;28;20213;-75
2022/02/11 17:40:41;;;;;;;5.60;1.65;;;;;;;;;;5042614;28;20647;-75
2022/02/11 17:43:10;;;;;;;3.00;1.40;;;;;;;;;;5039467;28;20654;-75
2022/02/11 17:45:37;;;;;;;3.30;1.42;;;;;;;;;;5042854;28;20234;-75
2022/02/11 17:48:05;;;;;;;2.55;1.60;;;;;;;;;;5052990;28;20293;-75
2022/02/11 17:50:32;;;;;;;5.93;1.83;;;;;;;;;;5053452;28;20219;-75
2022/02/11 17:53:00;;;;;;;3.15;1.88;;;;;;;;;;5038077;28;20670;-75
2022/02/11 17:55:28;;;;;;;2.85;1.60;;;;;;;;;;5049969;28;20226;-75
2022/02/11 17:57:55;;;;;;;5.32;2.08;;;;;;;;;;5039886;28;20195;-75
2022/02/11 18:00:22;;;;;;;3.58;2.00;;;;;;;;;;5045816;28;20668;-75
2022/02/11 18:02:50;;;;;;;2.25;1.45;;;;;;;;;;5044245;28;20248;-75
2022/02/11 18:05:19;;;;;;;4.75;2.25;;;;;;;;;;5041179;28;20207;-75